Time;durP1;ratioP1;P1;durP2;ratioP2;P2;SDS_P1;SDS_P2;PMS_P1;PMS_P2;Temp;Humidity;BMP_temperature;BMP_pressure;BME280_temperature;BME280_humidity;BME280_pressure;Samples;Min_cycle;Max_cycle;Signal;HPM_P1;HPM_P2
2022/09/25 00:00:59;;;;;;;6.95;5.95;;;11.50;99.80;;;;;;5071875;28;20277;-64
2022/09/25 00:03:30;;;;;;;30.33;6.93;;;11.40;99.90;;;;;;5072461;28;20193;-63
2022/09/25 00:06:06;;;;;;;10.98;5.40;;;11.40;99.90;;;;;;5071373;28;20185;-64
2022/09/25 00:08:35;;;;;;;51.38;9.00;;;11.40;99.90;;;;;;5071953;28;20221;-63
2022/09/25 00:11:06;;;;;;;22.52;5.57;;;11.30;99.90;;;;;;5072142;28;20185;-63
2022/09/25 00:13:33;;;;;;;4.57;4.03;;;11.30;99.90;;;;;;5071960;28;20224;-63
2022/09/25 00:16:01;;;;;;;6.05;4.78;;;11.20;99.90;;;;;;5071064;28;20196;-63
2022/09/25 00:21:16;;;;;;;4.70;4.20;;;11.20;99.90;;;;;;5071702;28;20192;-64
2022/09/25 00:23:45;;;;;;;4.75;3.75;;;11.20;99.90;;;;;;5072452;28;20197;-64
2022/09/25 00:26:13;;;;;;;3.60;3.15;;;11.20;99.90;;;;;;5071946;28;20190;-63
2022/09/25 00:28:42;;;;;;;4.78;3.75;;;11.20;99.70;;;;;;5071614;28;20566;-63
2022/09/25 00:31:10;;;;;;;4.43;4.00;;;11.20;99.80;;;;;;5071212;28;20209;-63
2022/09/25 00:33:38;;;;;;;4.18;3.40;;;11.20;99.90;;;;;;5071884;28;20603;-63
2022/09/25 00:36:08;;;;;;;4.78;3.95;;;11.20;99.90;;;;;;5069769;28;20178;-64
2022/09/25 00:38:37;;;;;;;3.45;2.90;;;11.20;99.90;;;;;;5071580;28;20190;-63
2022/09/25 00:41:06;;;;;;;3.78;3.10;;;11.20;99.60;;;;;;5071662;28;20321;-64
2022/09/25 00:43:37;;;;;;;4.07;2.92;;;11.20;99.50;;;;;;5070109;28;20246;-64
2022/09/25 00:46:09;;;;;;;7.78;3.10;;;11.10;99.20;;;;;;5071364;28;20196;-63
2022/09/25 00:48:40;;;;;;;3.25;2.70;;;11.10;99.00;;;;;;5071082;28;20214;-63
2022/09/25 00:51:07;;;;;;;3.53;2.58;;;11.00;98.60;;;;;;5071471;28;20735;-64
2022/09/25 00:53:37;;;;;;;2.78;1.80;;;10.90;98.20;;;;;;5071407;28;20243;-63
2022/09/25 00:56:07;;;;;;;4.25;2.67;;;10.90;97.80;;;;;;5070936;28;20220;-64
2022/09/25 00:58:39;;;;;;;27.25;4.07;;;10.80;98.00;;;;;;5071050;28;20178;-64
2022/09/25 01:01:08;;;;;;;11.75;3.42;;;10.70;97.30;;;;;;5071656;28;20216;-63
2022/09/25 01:03:35;;;;;;;4.28;2.78;;;10.60;97.40;;;;;;5071188;28;20197;-63
2022/09/25 01:06:04;;;;;;;5.72;3.65;;;10.60;97.40;;;;;;5071376;28;20193;-63
2022/09/25 01:08:33;;;;;;;4.35;3.60;;;10.50;97.70;;;;;;5070766;28;20279;-63
2022/09/25 01:11:01;;;;;;;4.32;3.30;;;10.50;98.00;;;;;;5071691;28;20223;-63
2022/09/25 01:13:29;;;;;;;5.97;3.67;;;10.50;98.20;;;;;;5070986;28;20221;-63
2022/09/25 01:16:04;;;;;;;4.35;2.60;;;10.40;98.40;;;;;;5071603;28;20524;-64
2022/09/25 01:18:46;;;;;;;9.88;7.03;;;10.40;98.30;;;;;;5071426;28;20189;-63
2022/09/25 01:21:36;;;;;;;9.77;7.13;;;10.40;98.30;;;;;;5071010;28;20281;-64
2022/09/25 01:24:39;;;;;;;11.63;7.53;;;10.30;98.70;;;;;;5071568;28;20579;-63
2022/09/25 01:27:32;;;;;;;8.60;5.40;;;10.40;98.90;;;;;;5064031;28;20697;-64
2022/09/25 01:30:10;;;;;;;8.13;6.00;;;10.40;99.10;;;;;;5070892;28;20193;-65
2022/09/25 01:32:47;;;;;;;10.45;6.35;;;10.40;99.30;;;;;;5055293;28;20652;-63
2022/09/25 01:35:19;;;;;;;8.43;5.65;;;10.40;99.00;;;;;;5071029;28;20205;-64
2022/09/25 01:37:54;;;;;;;6.68;4.72;;;10.40;99.10;;;;;;5071542;28;20284;-66
2022/09/25 01:40:27;;;;;;;6.43;4.68;;;10.40;99.30;;;;;;5070701;28;20227;-65
2022/09/25 01:43:02;;;;;;;4.93;4.07;;;10.40;99.20;;;;;;5071448;28;20190;-64
2022/09/25 01:45:36;;;;;;;6.45;4.15;;;10.40;98.70;;;;;;5070326;28;20268;-63
2022/09/25 01:48:08;;;;;;;8.32;4.70;;;10.30;97.60;;;;;;5071008;28;20298;-64
2022/09/25 01:50:42;;;;;;;8.30;4.80;;;10.10;97.70;;;;;;5072800;28;20186;-63
2022/09/25 01:53:15;;;;;;;6.35;4.13;;;10.10;97.90;;;;;;5074959;28;20197;-63
2022/09/25 01:55:46;;;;;;;8.20;4.80;;;10.00;98.30;;;;;;5074179;28;20198;-63
2022/09/25 01:58:18;;;;;;;7.13;4.50;;;10.00;98.40;;;;;;5074355;28;20186;-63
2022/09/25 02:00:54;;;;;;;8.13;5.43;;;10.10;98.50;;;;;;5074243;28;20185;-63
2022/09/25 02:03:29;;;;;;;7.68;4.85;;;10.10;98.60;;;;;;5074676;28;20666;-64
2022/09/25 02:06:00;;;;;;;8.48;4.60;;;10.10;98.80;;;;;;5074270;28;20213;-63
2022/09/25 02:08:31;;;;;;;6.25;4.32;;;10.10;98.60;;;;;;5074364;28;20214;-64
2022/09/25 02:11:01;;;;;;;6.53;4.35;;;10.10;98.60;;;;;;5073577;28;20194;-64
2022/09/25 02:13:36;;;;;;;4.93;4.35;;;10.20;98.80;;;;;;5074088;28;20644;-64
2022/09/25 02:16:10;;;;;;;4.95;4.32;;;10.20;98.90;;;;;;5074186;28;20212;-63
2022/09/25 02:21:28;;;;;;;28.67;6.78;;;10.30;99.20;;;;;;5074232;28;20671;-64
2022/09/25 02:24:02;;;;;;;7.30;5.05;;;10.30;99.00;;;;;;5073746;28;20251;-65
2022/09/25 02:26:32;;;;;;;5.00;4.50;;;10.30;98.80;;;;;;5074252;28;20280;-64
2022/09/25 02:29:01;;;;;;;5.72;3.30;;;10.30;99.20;;;;;;5073503;28;20217;-63
2022/09/25 02:31:34;;;;;;;5.43;3.22;;;10.40;99.40;;;;;;5073567;28;20190;-64
2022/09/25 02:34:02;;;;;;;4.50;3.17;;;10.40;99.40;;;;;;5073425;28;20194;-67
2022/09/25 02:36:31;;;;;;;4.45;3.33;;;10.40;99.20;;;;;;5071252;28;20201;-64
2022/09/25 02:38:58;;;;;;;3.92;3.25;;;10.40;99.20;;;;;;5074160;28;20239;-63
2022/09/25 02:41:45;;;;;;;4.25;3.60;;;10.40;99.20;;;;;;5072979;28;20700;-63
2022/09/25 02:44:23;;;;;;;4.18;3.67;;;10.40;99.50;;;;;;5073218;28;20624;-64
2022/09/25 02:47:03;;;;;;;3.42;2.58;;;10.40;99.20;;;;;;5074010;28;20190;-64
2022/09/25 02:49:40;;;;;;;3.10;2.80;;;10.40;99.20;;;;;;5073312;28;20551;-64
2022/09/25 02:52:16;;;;;;;3.28;2.67;;;10.40;99.40;;;;;;5073718;28;20546;-63
2022/09/25 02:54:48;;;;;;;3.03;2.47;;;10.30;99.80;;;;;;5073246;28;20266;-63
2022/09/25 02:57:25;;;;;;;4.25;3.30;;;10.40;99.90;;;;;;5073722;28;20194;-63
2022/09/25 02:59:56;;;;;;;4.00;3.08;;;10.40;99.90;;;;;;5073151;28;20497;-64
2022/09/25 03:02:26;;;;;;;5.70;2.80;;;10.50;99.90;;;;;;5072566;28;20193;-65
2022/09/25 03:04:54;;;;;;;4.50;2.38;;;10.50;99.90;;;;;;5073089;28;20193;-64
2022/09/25 03:07:22;;;;;;;3.05;2.42;;;10.50;99.90;;;;;;5073000;28;20235;-65
2022/09/25 03:09:50;;;;;;;3.13;2.58;;;10.50;99.70;;;;;;5073030;28;20189;-64
2022/09/25 03:12:17;;;;;;;3.92;2.97;;;10.50;99.50;;;;;;5073400;28;20189;-64
2022/09/25 03:14:44;;;;;;;3.40;2.40;;;10.50;99.50;;;;;;5072551;28;20572;-63
2022/09/25 03:17:13;;;;;;;3.80;3.33;;;10.50;99.60;;;;;;5073167;28;20193;-63
2022/09/25 03:19:42;;;;;;;3.33;2.90;;;10.40;99.40;;;;;;5072752;28;20190;-64
2022/09/25 03:22:14;;;;;;;5.03;3.35;;;10.40;99.50;;;;;;5073161;28;20648;-63
2022/09/25 03:24:41;;;;;;;3.92;3.20;;;10.50;99.40;;;;;;5072688;28;20681;-63
2022/09/25 03:27:08;;;;;;;4.50;3.20;;;10.50;99.50;;;;;;5072689;28;20243;-63
2022/09/25 03:29:35;;;;;;;4.30;3.47;;;10.60;99.70;;;;;;5072301;28;20217;-64
2022/09/25 03:32:02;;;;;;;3.45;2.95;;;10.60;99.60;;;;;;5053105;28;20222;-63
2022/09/25 03:34:30;;;;;;;4.75;3.63;;;10.60;99.70;;;;;;5052855;28;20552;-64
2022/09/25 03:36:58;;;;;;;3.78;3.28;;;10.60;99.50;;;;;;5072854;28;20319;-64
2022/09/25 03:39:25;;;;;;;3.78;3.15;;;10.60;99.60;;;;;;5072839;28;20568;-63
2022/09/25 03:41:52;;;;;;;4.50;3.20;;;10.60;99.50;;;;;;5072703;28;20224;-64
2022/09/25 03:44:20;;;;;;;3.45;3.00;;;10.60;99.60;;;;;;5072789;28;20254;-64
2022/09/25 03:46:47;;;;;;;3.65;3.00;;;10.70;99.90;;;;;;5071837;28;20705;-64
2022/09/25 03:49:14;;;;;;;4.57;3.13;;;10.70;99.70;;;;;;5072200;28;20275;-64
2022/09/25 03:51:41;;;;;;;4.28;3.15;;;10.70;99.60;;;;;;5072208;28;20185;-64
2022/09/25 03:54:09;;;;;;;3.65;2.85;;;10.70;99.50;;;;;;5072553;28;20190;-63
2022/09/25 03:56:37;;;;;;;4.55;2.90;;;10.70;99.50;;;;;;5071560;28;20217;-64
2022/09/25 03:59:04;;;;;;;3.42;2.80;;;10.70;99.70;;;;;;5072191;28;20667;-63
2022/09/25 04:01:31;;;;;;;4.00;3.20;;;10.70;99.30;;;;;;5071890;28;20181;-64
2022/09/25 04:04:01;;;;;;;4.20;3.53;;;10.70;99.30;;;;;;5072675;28;20197;-64
2022/09/25 04:06:29;;;;;;;4.03;3.25;;;10.70;99.00;;;;;;5072284;28;20190;-64
2022/09/25 04:08:55;;;;;;;4.57;4.10;;;10.70;99.10;;;;;;5072542;28;20221;-64
2022/09/25 04:11:24;;;;;;;5.10;3.92;;;10.70;99.70;;;;;;5072022;28;20182;-63
2022/09/25 04:13:52;;;;;;;6.30;3.85;;;10.70;99.50;;;;;;5072351;28;20234;-63
2022/09/25 04:16:20;;;;;;;4.03;3.40;;;10.70;99.40;;;;;;5071920;28;20196;-63
2022/09/25 04:18:47;;;;;;;4.40;4.00;;;10.70;99.50;;;;;;5072723;28;20221;-64
2022/09/25 04:21:15;;;;;;;5.53;4.65;;;10.70;99.30;;;;;;5072099;28;20213;-63
2022/09/25 04:24:46;;;;;;;4.50;4.10;;;10.70;99.40;;;;;;5072361;28;20244;-64
2022/09/25 04:26:32;;;;;;;6.97;5.32;;;10.70;99.40;;;;;;5071762;28;20607;-63
2022/09/25 04:29:00;;;;;;;5.38;4.55;;;10.80;99.70;;;;;;5072543;28;20222;-63
2022/09/25 04:31:27;;;;;;;5.88;4.63;;;10.70;99.70;;;;;;5072118;28;20182;-63
2022/09/25 04:33:53;;;;;;;6.50;5.85;;;10.80;99.90;;;;;;5072532;28;20289;-64
2022/09/25 04:36:20;;;;;;;5.73;4.50;;;10.80;99.90;;;;;;5071714;28;20264;-64
2022/09/25 04:38:48;;;;;;;5.35;4.72;;;10.80;99.90;;;;;;5072113;28;20482;-63
2022/09/25 04:41:18;;;;;;;5.70;4.40;;;10.80;99.90;;;;;;5072132;28;20182;-64
2022/09/25 04:43:47;;;;;;;5.55;4.68;;;10.80;99.90;;;;;;5072277;28;20247;-63
2022/09/25 04:46:15;;;;;;;5.57;4.60;;;10.80;99.60;;;;;;5071212;28;20197;-63
2022/09/25 04:48:45;;;;;;;6.85;4.35;;;10.80;99.80;;;;;;5072282;28;20229;-63
2022/09/25 04:51:12;;;;;;;7.85;4.25;;;10.80;99.90;;;;;;5072185;28;20194;-63
2022/09/25 04:53:39;;;;;;;7.50;4.22;;;10.90;99.90;;;;;;5072136;28;20193;-64
2022/09/25 04:56:08;;;;;;;4.75;4.00;;;10.90;99.90;;;;;;5071649;28;20636;-64
2022/09/25 04:58:35;;;;;;;6.97;6.00;;;10.90;99.90;;;;;;5072199;28;20240;-64
2022/09/25 05:01:05;;;;;;;7.15;5.82;;;10.90;99.90;;;;;;5071545;28;20189;-63
2022/09/25 05:03:32;;;;;;;5.97;5.38;;;10.90;99.90;;;;;;5071942;28;20537;-64
2022/09/25 05:05:59;;;;;;;5.10;4.55;;;11.00;99.60;;;;;;5071635;28;20185;-63
2022/09/25 05:08:27;;;;;;;5.38;4.63;;;10.90;99.80;;;;;;5072218;28;20263;-63
2022/09/25 05:10:54;;;;;;;7.45;4.45;;;10.90;99.50;;;;;;5070976;28;20182;-64
2022/09/25 05:13:21;;;;;;;6.75;4.80;;;10.90;99.40;;;;;;5071796;28;20182;-64
2022/09/25 05:15:48;;;;;;;7.30;4.63;;;10.90;99.70;;;;;;5072103;28;20194;-63
2022/09/25 05:18:19;;;;;;;6.93;4.60;;;10.90;99.90;;;;;;5071395;28;20588;-64
2022/09/25 05:20:46;;;;;;;8.05;5.93;;;11.00;99.90;;;;;;5072111;28;20189;-64
2022/09/25 05:23:14;;;;;;;10.13;7.85;;;11.00;99.90;;;;;;5071825;28;20178;-64
2022/09/25 05:25:41;;;;;;;7.03;5.55;;;11.00;99.90;;;;;;5073193;28;20190;-63
2022/09/25 05:28:10;;;;;;;6.40;5.65;;;11.00;99.90;;;;;;5074829;28;20318;-64
2022/09/25 05:30:38;;;;;;;6.70;4.70;;;11.00;99.90;;;;;;5075550;28;20247;-63
2022/09/25 05:33:06;;;;;;;6.70;4.60;;;11.10;99.90;;;;;;5075317;28;20251;-63
2022/09/25 05:35:35;;;;;;;6.32;5.57;;;11.10;99.90;;;;;;5074689;28;20212;-64
2022/09/25 05:38:02;;;;;;;8.10;5.13;;;11.10;99.90;;;;;;5075147;28;20185;-63
2022/09/25 05:40:29;;;;;;;7.20;6.10;;;11.10;99.90;;;;;;5075623;28;20243;-64
2022/09/25 05:42:57;;;;;;;8.57;6.32;;;11.10;99.90;;;;;;5074976;28;20235;-64
2022/09/25 05:45:24;;;;;;;11.20;7.90;;;11.20;99.90;;;;;;5066199;28;20190;-65
2022/09/25 05:48:01;;;;;;;10.02;7.43;;;11.20;99.90;;;;;;5055257;28;20268;-64
2022/09/25 05:50:28;;;;;;;8.23;6.00;;;11.20;99.90;;;;;;5055482;28;20308;-63
2022/09/25 05:52:57;;;;;;;8.07;6.55;;;11.20;99.90;;;;;;5055408;28;20252;-64
2022/09/25 05:55:25;;;;;;;8.25;5.40;;;11.30;99.90;;;;;;5073988;28;20211;-64
2022/09/25 05:57:52;;;;;;;7.30;5.60;;;11.30;99.90;;;;;;5074901;28;20221;-64
2022/09/25 06:00:21;;;;;;;7.50;5.72;;;11.30;99.90;;;;;;5074724;28;20190;-64
2022/09/25 06:02:52;;;;;;;7.30;4.65;;;11.30;99.90;;;;;;5074989;28;20190;-64
2022/09/25 06:05:19;;;;;;;7.43;6.05;;;11.30;99.90;;;;;;5074844;28;20186;-63
2022/09/25 06:07:52;;;;;;;7.78;5.65;;;11.30;99.90;;;;;;5073945;28;20190;-64
2022/09/25 06:10:21;;;;;;;8.45;5.82;;;11.40;99.90;;;;;;5074945;28;20221;-64
2022/09/25 06:12:48;;;;;;;10.30;7.60;;;11.40;99.90;;;;;;5074964;28;20196;-64
2022/09/25 06:15:15;;;;;;;11.10;8.10;;;11.40;99.90;;;;;;5074884;28;20193;-64
2022/09/25 06:17:42;;;;;;;9.18;7.95;;;11.50;99.90;;;;;;5073749;28;20196;-64
2022/09/25 06:20:11;;;;;;;10.65;9.10;;;11.50;99.90;;;;;;5074725;28;20192;-63
2022/09/25 06:22:38;;;;;;;9.95;8.35;;;11.50;99.90;;;;;;5074378;28;20194;-64
2022/09/25 06:25:06;;;;;;;11.10;8.07;;;11.50;99.90;;;;;;5074692;28;20720;-64
2022/09/25 06:27:35;;;;;;;10.02;8.90;;;11.50;99.90;;;;;;5074420;28;20281;-64
2022/09/25 06:30:01;;;;;;;8.30;7.38;;;11.50;99.90;;;;;;5074568;28;20222;-64
2022/09/25 06:32:29;;;;;;;8.35;6.20;;;11.50;99.90;;;;;;5074309;28;20189;-63
2022/09/25 06:34:56;;;;;;;5.95;5.35;;;11.50;99.90;;;;;;5074362;28;20239;-63
2022/09/25 06:37:23;;;;;;;7.38;5.28;;;11.60;99.90;;;;;;5073549;28;20194;-64
2022/09/25 06:39:50;;;;;;;6.35;5.05;;;11.60;99.90;;;;;;5074490;28;20197;-64
2022/09/25 06:42:17;;;;;;;11.13;6.50;;;11.70;99.90;;;;;;5074266;28;20186;-64
2022/09/25 06:44:45;;;;;;;8.55;6.95;;;11.80;99.90;;;;;;5074246;28;20186;-64
2022/09/25 06:47:12;;;;;;;9.02;6.70;;;11.80;99.90;;;;;;5073364;28;20190;-64
2022/09/25 06:49:39;;;;;;;8.00;6.53;;;11.90;99.90;;;;;;5074375;28;20217;-65
2022/09/25 06:52:06;;;;;;;6.50;5.20;;;11.90;99.90;;;;;;5073496;28;20220;-64
2022/09/25 06:54:33;;;;;;;6.50;5.85;;;12.00;99.90;;;;;;5074037;28;20197;-64
2022/09/25 06:57:00;;;;;;;5.60;5.05;;;12.00;99.90;;;;;;5073637;28;20725;-64
2022/09/25 06:59:27;;;;;;;5.95;5.20;;;12.00;99.90;;;;;;5074082;28;20221;-64
2022/09/25 07:03:43;;;;;;;4.40;3.75;;;12.10;99.90;;;;;;5072539;28;20200;-64
2022/09/25 07:04:43;;;;;;;3.15;2.72;;;12.20;99.90;;;;;;5073615;28;20256;-64
2022/09/25 07:07:10;;;;;;;4.20;2.90;;;12.20;99.90;;;;;;5073293;28;20178;-64
2022/09/25 07:09:37;;;;;;;5.15;4.60;;;12.30;99.90;;;;;;5073580;28;20483;-64
2022/09/25 07:12:04;;;;;;;7.20;4.50;;;12.20;99.90;;;;;;5073632;28;20190;-63
2022/09/25 07:14:32;;;;;;;5.03;4.53;;;12.30;99.90;;;;;;5073486;28;20190;-64
2022/09/25 07:17:01;;;;;;;7.45;5.05;;;12.40;99.90;;;;;;5069970;28;20218;-65
2022/09/25 07:19:28;;;;;;;5.15;4.65;;;12.40;99.90;;;;;;5070614;28;20193;-64
2022/09/25 07:21:55;;;;;;;5.82;5.22;;;12.50;99.90;;;;;;5071978;28;20239;-64
2022/09/25 07:24:22;;;;;;;6.57;6.03;;;12.50;99.90;;;;;;5071322;28;20193;-64
2022/09/25 07:26:49;;;;;;;9.23;7.22;;;12.70;99.90;;;;;;5071825;28;20243;-65
2022/09/25 07:29:16;;;;;;;7.55;6.85;;;12.80;99.90;;;;;;5070719;28;20221;-65
2022/09/25 07:31:43;;;;;;;8.02;7.20;;;12.80;99.90;;;;;;5071232;28;20197;-64
2022/09/25 07:34:12;;;;;;;8.68;6.68;;;12.90;99.90;;;;;;5071646;28;20220;-65
2022/09/25 07:36:41;;;;;;;7.75;6.95;;;13.00;99.90;;;;;;5070513;28;20190;-64
2022/09/25 07:39:08;;;;;;;8.20;6.78;;;13.10;99.90;;;;;;5066530;28;20560;-64
2022/09/25 07:41:36;;;;;;;8.60;7.78;;;13.20;99.90;;;;;;5071357;28;20664;-64
2022/09/25 07:44:03;;;;;;;8.70;7.90;;;13.30;99.90;;;;;;5071113;28;20662;-64
2022/09/25 07:46:31;;;;;;;9.37;8.27;;;13.40;99.90;;;;;;5071001;28;20190;-65
2022/09/25 07:48:59;;;;;;;18.48;13.38;;;13.50;99.90;;;;;;5069880;28;20463;-63
2022/09/25 07:51:28;;;;;;;22.00;20.00;;;13.50;99.90;;;;;;5071550;28;20194;-64
2022/09/25 07:53:54;;;;;;;13.23;11.82;;;13.60;99.90;;;;;;5071080;28;21154;-64
2022/09/25 07:56:22;;;;;;;31.35;28.10;;;13.70;99.90;;;;;;5070902;28;20221;-64
2022/09/25 07:58:53;;;;;;;22.50;20.30;;;13.70;99.90;;;;;;5070604;28;20197;-65
2022/09/25 08:01:20;;;;;;;13.47;12.23;;;13.80;99.90;;;;;;5071615;28;20443;-64
2022/09/25 08:03:48;;;;;;;4.70;4.20;;;13.90;99.90;;;;;;5070744;28;20473;-64
2022/09/25 08:06:15;;;;;;;5.30;4.60;;;13.90;99.70;;;;;;5071217;28;20554;-64
2022/09/25 08:08:44;;;;;;;4.50;3.93;;;13.90;99.30;;;;;;5070382;28;20444;-64
2022/09/25 08:11:13;;;;;;;4.37;3.97;;;14.00;98.80;;;;;;5070842;28;20476;-64
2022/09/25 08:13:41;;;;;;;5.17;4.47;;;14.00;99.10;;;;;;5070116;28;20490;-64
2022/09/25 08:16:12;;;;;;;5.20;4.67;;;14.10;99.30;;;;;;5071047;28;20834;-64
2022/09/25 08:18:40;;;;;;;7.20;6.60;;;14.10;99.50;;;;;;5070837;28;20432;-64
2022/09/25 08:21:09;;;;;;;6.88;6.28;;;14.20;99.90;;;;;;5070544;28;20874;-64
2022/09/25 08:23:36;;;;;;;7.67;6.93;;;14.30;99.90;;;;;;5070241;28;20193;-64
2022/09/25 08:26:04;;;;;;;5.77;5.17;;;14.40;99.70;;;;;;5070828;28;20830;-64
2022/09/25 08:28:32;;;;;;;6.17;5.47;;;14.40;98.70;;;;;;5068965;28;20524;-64
2022/09/25 08:31:00;;;;;;;7.23;6.53;;;14.40;97.70;;;;;;5068315;28;20541;-65
2022/09/25 08:33:27;;;;;;;5.43;4.60;;;14.30;98.20;;;;;;5067183;28;20479;-65
2022/09/25 08:35:56;;;;;;;7.10;6.40;;;14.40;98.40;;;;;;5070598;28;20486;-64
2022/09/25 08:38:25;;;;;;;6.33;5.70;;;14.50;98.60;;;;;;5070342;28;20432;-65
2022/09/25 08:40:57;;;;;;;5.93;5.33;;;14.60;98.40;;;;;;5069646;28;20443;-65
2022/09/25 08:43:28;;;;;;;6.30;5.17;;;14.80;98.60;;;;;;5070827;28;20439;-64
2022/09/25 08:49:05;;;;;;;6.57;5.97;;;15.10;97.60;;;;;;5070759;28;20501;-65
2022/09/25 08:51:36;;;;;;;5.80;5.03;;;15.30;97.40;;;;;;5070008;28;20487;-66
2022/09/25 08:54:04;;;;;;;5.37;4.87;;;15.70;97.70;;;;;;5061366;28;20463;-65
2022/09/25 08:56:34;;;;;;;6.47;5.30;;;15.90;96.50;;;;;;5069945;28;20522;-64
2022/09/25 08:59:10;;;;;;;6.27;5.67;;;16.30;97.00;;;;;;5070409;28;20436;-64
2022/09/25 09:01:44;;;;;;;5.83;5.23;;;16.70;96.70;;;;;;5071081;28;21072;-65
2022/09/25 09:04:19;;;;;;;10.03;5.77;;;17.60;97.10;;;;;;5074252;28;20468;-65
2022/09/25 09:06:50;;;;;;;6.83;5.90;;;19.20;98.00;;;;;;5071267;28;20519;-65
2022/09/25 09:09:22;;;;;;;5.95;5.20;;;22.60;97.00;;;;;;5074394;28;20493;-65
2022/09/25 09:11:54;;;;;;;4.33;3.90;;;25.70;75.60;;;;;;5074576;28;20509;-65
2022/09/25 09:14:29;;;;;;;4.40;2.93;;;27.70;59.10;;;;;;5074126;28;20451;-65
2022/09/25 09:17:00;;;;;;;3.20;2.63;;;29.00;57.30;;;;;;5074350;28;20478;-65
2022/09/25 09:19:27;;;;;;;2.90;2.27;;;31.90;46.80;;;;;;5070784;28;20440;-65
2022/09/25 09:22:03;;;;;;;2.90;2.53;;;32.80;39.80;;;;;;5074286;28;20436;-65
2022/09/25 09:24:43;;;;;;;2.80;2.10;;;32.20;37.80;;;;;;5074151;28;20526;-65
2022/09/25 09:27:25;;;;;;;3.23;2.67;;;31.40;37.30;;;;;;5073053;28;20850;-65
2022/09/25 09:30:15;;;;;;;4.77;2.40;;;30.70;37.30;;;;;;5074084;28;20516;-65
2022/09/25 09:33:01;;;;;;;3.93;2.60;;;30.20;38.00;;;;;;5074167;28;20502;-65
2022/09/25 09:35:36;;;;;;;3.73;2.90;;;29.50;39.50;;;;;;5070201;28;20493;-65
2022/09/25 09:38:15;;;;;;;3.40;2.80;;;30.10;39.30;;;;;;5073435;28;20445;-64
2022/09/25 09:41:01;;;;;;;7.03;3.70;;;29.40;38.00;;;;;;5068526;28;20473;-64
2022/09/25 09:43:43;;;;;;;3.20;2.77;;;28.20;39.20;;;;;;5071968;28;20432;-64
2022/09/25 09:46:20;;;;;;;3.87;3.40;;;27.40;41.90;;;;;;5074115;28;20633;-64
2022/09/25 09:48:58;;;;;;;4.00;3.53;;;26.70;44.40;;;;;;5070015;28;20542;-65
2022/09/25 09:51:30;;;;;;;5.20;4.20;;;26.20;44.40;;;;;;5072284;28;20475;-65
2022/09/25 09:54:05;;;;;;;7.27;4.70;;;26.40;50.10;;;;;;5070553;28;20796;-65
2022/09/25 09:56:34;;;;;;;3.40;2.43;;;30.60;44.80;;;;;;5073600;28;20475;-66
2022/09/25 09:59:04;;;;;;;4.60;2.90;;;35.10;39.10;;;;;;5072469;28;20481;-65
2022/09/25 10:01:36;;;;;;;3.53;2.70;;;38.80;33.90;;;;;;5073091;28;20531;-65
2022/09/25 10:04:06;;;;;;;5.37;3.37;;;41.90;25.80;;;;;;5074348;28;20446;-66
2022/09/25 10:06:37;;;;;;;3.93;2.37;;;44.20;22.10;;;;;;5073576;28;20463;-65
2022/09/25 10:09:05;;;;;;;3.37;2.53;;;45.90;19.20;;;;;;5074038;28;20480;-70
2022/09/25 10:11:33;;;;;;;5.43;2.40;;;47.10;18.50;;;;;;5072331;28;20986;-65
2022/09/25 10:14:04;;;;;;;6.50;2.60;;;47.80;16.90;;;;;;5072236;28;20528;-64
2022/09/25 10:16:33;;;;;;;3.93;2.60;;;47.30;16.40;;;;;;5073242;28;20497;-65
2022/09/25 10:19:05;;;;;;;3.83;2.80;;;47.00;16.40;;;;;;5073093;28;20864;-65
2022/09/25 10:21:38;;;;;;;2.80;2.30;;;47.00;16.20;;;;;;5072980;28;20600;-65
2022/09/25 10:24:06;;;;;;;2.73;2.10;;;46.50;15.80;;;;;;5071401;28;20506;-65
2022/09/25 10:26:35;;;;;;;4.20;3.03;;;44.30;16.20;;;;;;5073035;28;20440;-65
2022/09/25 10:29:06;;;;;;;3.83;3.43;;;41.50;16.80;;;;;;5068354;28;20809;-64
2022/09/25 10:31:38;;;;;;;4.30;3.30;;;38.70;19.00;;;;;;5071675;28;20448;-64
2022/09/25 10:34:16;;;;;;;4.30;3.00;;;36.30;21.50;;;;;;5072726;28;20432;-64
2022/09/25 10:36:46;;;;;;;4.30;2.67;;;34.30;23.00;;;;;;5070395;28;20446;-63
2022/09/25 10:39:28;;;;;;;4.70;2.87;;;32.80;25.60;;;;;;5072437;28;20926;-65
2022/09/25 10:41:57;;;;;;;3.23;2.60;;;31.40;27.10;;;;;;5069888;28;20519;-64
2022/09/25 10:44:32;;;;;;;5.07;3.30;;;30.40;28.30;;;;;;5072583;28;20444;-64
2022/09/25 10:50:18;;;;;;;3.10;2.70;;;28.60;32.10;;;;;;5069937;28;20439;-65
2022/09/25 10:52:49;;;;;;;3.70;3.20;;;28.10;32.20;;;;;;5070522;28;20441;-65
2022/09/25 10:55:26;;;;;;;4.27;2.67;;;27.70;33.60;;;;;;5070914;28;20448;-63
2022/09/25 10:58:02;;;;;;;5.93;2.40;;;27.00;34.10;;;;;;5068043;28;20447;-65
2022/09/25 11:00:29;;;;;;;3.33;2.60;;;26.30;35.10;;;;;;5066865;28;20553;-64
2022/09/25 11:03:01;;;;;;;4.67;2.30;;;25.90;36.30;;;;;;5067774;28;20535;-64
2022/09/25 11:05:31;;;;;;;5.40;2.73;;;25.50;37.50;;;;;;5067714;28;20957;-63
2022/09/25 11:08:01;;;;;;;2.97;2.07;;;25.00;37.80;;;;;;5063449;28;20775;-64
2022/09/25 11:10:32;;;;;;;2.90;2.40;;;24.70;39.80;;;;;;5065089;28;20922;-65
2022/09/25 11:13:01;;;;;;;3.27;2.00;;;24.40;40.80;;;;;;5066640;28;20995;-64
2022/09/25 11:15:29;;;;;;;3.50;2.93;;;24.10;41.30;;;;;;5067519;28;20555;-64
2022/09/25 11:17:58;;;;;;;3.30;2.37;;;23.50;42.00;;;;;;5068300;28;20459;-64
2022/09/25 11:20:29;;;;;;;3.50;2.37;;;23.20;43.90;;;;;;5066521;28;20487;-64
2022/09/25 11:23:23;;;;;;;4.93;3.57;;;22.70;43.30;;;;;;5065952;28;20941;-64
2022/09/25 11:25:58;;;;;;;7.23;5.10;;;22.30;44.10;;;;;;5065038;28;20452;-63
2022/09/25 11:28:33;;;;;;;6.80;5.20;;;22.10;44.50;;;;;;5067935;28;20504;-66
2022/09/25 11:31:09;;;;;;;3.97;2.87;;;21.80;45.60;;;;;;5069983;28;20566;-63
2022/09/25 11:33:45;;;;;;;5.73;5.13;;;21.50;46.10;;;;;;5068437;28;20444;-63
2022/09/25 11:36:18;;;;;;;4.60;4.10;;;21.20;47.30;;;;;;5068770;28;20443;-64
2022/09/25 11:41:39;;;;;;;3.37;2.70;;;20.50;49.60;;;;;;5068582;28;20501;-63
2022/09/25 11:44:17;;;;;;;3.60;2.63;;;20.40;50.80;;;;;;5067766;28;20497;-63
2022/09/25 11:46:52;;;;;;;3.37;2.40;;;20.20;53.20;;;;;;5068924;28;20452;-63
2022/09/25 11:49:24;;;;;;;3.23;2.10;;;20.20;53.30;;;;;;5069045;28;20439;-66
2022/09/25 11:52:15;;;;;;;3.07;2.37;;;20.00;54.50;;;;;;5067942;28;20492;-65
2022/09/25 11:55:19;;;;;;;4.53;2.10;;;19.80;54.30;;;;;;5068580;28;21005;-62
2022/09/25 11:57:56;;;;;;;3.27;2.47;;;19.70;55.20;;;;;;5069453;28;20439;-64
2022/09/25 12:00:30;;;;;;;4.07;3.07;;;19.70;55.80;;;;;;5068328;28;20436;-63
2022/09/25 12:03:12;;;;;;;5.30;2.97;;;19.70;56.80;;;;;;5066852;28;20475;-63
2022/09/25 12:06:10;;;;;;;3.77;2.90;;;19.70;55.50;;;;;;5067087;28;20458;-63
2022/09/25 12:08:56;;;;;;;3.40;2.60;;;19.60;55.30;;;;;;5065958;28;20444;-63
2022/09/25 12:11:30;;;;;;;4.40;3.53;;;19.40;55.70;;;;;;5068384;28;20484;-63
2022/09/25 12:14:03;;;;;;;4.03;2.73;;;19.30;56.30;;;;;;5065345;28;20469;-64
2022/09/25 12:16:40;;;;;;;4.77;3.40;;;19.20;57.20;;;;;;5066618;28;20432;-63
2022/09/25 12:19:22;;;;;;;3.53;2.60;;;19.20;57.70;;;;;;5066716;28;20842;-65
2022/09/25 12:22:00;;;;;;;4.23;2.70;;;19.20;57.00;;;;;;5065260;28;20450;-65
2022/09/25 12:24:45;;;;;;;3.93;2.80;;;19.20;56.70;;;;;;5066094;28;20432;-63
2022/09/25 12:27:21;;;;;;;4.73;2.93;;;19.20;56.70;;;;;;5067124;28;20498;-64
2022/09/25 12:30:05;;;;;;;5.63;3.10;;;19.20;56.80;;;;;;5067440;28;20519;-63
2022/09/25 12:32:47;;;;;;;3.07;2.13;;;19.20;58.10;;;;;;5066525;28;20507;-64
2022/09/25 12:35:29;;;;;;;2.67;1.70;;;19.10;59.00;;;;;;5066647;28;20432;-63
2022/09/25 12:38:04;;;;;;;3.10;1.60;;;18.90;58.80;;;;;;5068583;28;20440;-63
2022/09/25 12:40:37;;;;;;;4.30;1.60;;;18.60;62.10;;;;;;5068506;28;20446;-63
2022/09/25 12:43:10;;;;;;;3.50;1.70;;;18.40;60.70;;;;;;5067067;28;20436;-64
2022/09/25 12:45:44;;;;;;;2.40;1.50;;;18.30;60.10;;;;;;5066913;28;20432;-63
2022/09/25 12:48:17;;;;;;;2.30;1.30;;;18.10;61.10;;;;;;5068744;28;20479;-63
2022/09/25 12:50:51;;;;;;;2.43;1.73;;;18.00;62.40;;;;;;5065553;28;20486;-63
2022/09/25 12:53:32;;;;;;;2.60;1.73;;;17.90;64.70;;;;;;5066654;28;20471;-64
2022/09/25 12:56:09;;;;;;;4.83;2.47;;;17.80;69.00;;;;;;5067777;28;20530;-63
2022/09/25 12:58:52;;;;;;;3.00;1.93;;;17.80;71.40;;;;;;5066125;28;20451;-64
2022/09/25 13:01:25;;;;;;;2.90;1.77;;;17.70;73.30;;;;;;5067395;28;20443;-64
2022/09/25 13:04:09;;;;;;;4.10;2.03;;;17.60;72.00;;;;;;5067052;28;20439;-63
2022/09/25 13:06:45;;;;;;;4.03;2.07;;;17.60;71.50;;;;;;5067591;28;20435;-64
2022/09/25 13:09:22;;;;;;;2.80;1.60;;;17.60;71.40;;;;;;5066210;28;20534;-63
2022/09/25 13:11:56;;;;;;;2.73;1.77;;;17.60;72.30;;;;;;5067856;28;20485;-63
2022/09/25 13:14:33;;;;;;;3.13;1.83;;;17.70;73.80;;;;;;5068832;28;20448;-64
2022/09/25 13:17:01;;;;;;;2.80;1.40;;;17.80;74.50;;;;;;5065890;28;20474;-63
2022/09/25 13:19:29;;;;;;;3.60;1.70;;;17.80;71.10;;;;;;5068398;28;20466;-63
2022/09/25 13:22:03;;;;;;;2.60;1.60;;;17.70;71.30;;;;;;5069603;28;20442;-64